createdAt,value
2018-06-14T00:00:27.383Z,76.32
2018-06-14T00:02:54.621Z,77.18
2018-06-14T00:05:21.920Z,76.96
2018-06-14T00:07:49.221Z,76.98
2018-06-14T00:10:16.497Z,76.78
2018-06-14T00:12:43.760Z,77.49
2018-06-14T00:15:11.087Z,77.21
2018-06-14T00:17:38.379Z,78.47
2018-06-14T00:20:06.851Z,78.27
2018-06-14T00:22:34.133Z,76.82
2018-06-14T00:25:01.396Z,77.38
2018-06-14T00:27:28.669Z,76.67
2018-06-14T00:29:55.928Z,78.35
2018-06-14T00:32:23.261Z,78.97
2018-06-14T00:34:50.529Z,79.06
2018-06-14T00:37:17.830Z,79.01
2018-06-14T00:39:45.190Z,77.80
2018-06-14T00:42:12.425Z,77.63
2018-06-14T00:44:39.789Z,79.27
2018-06-14T00:47:07.165Z,79.21
2018-06-14T00:49:34.495Z,79.97
2018-06-14T00:52:01.864Z,80.36
2018-06-14T00:54:29.246Z,79.91
2018-06-14T00:57:07.913Z,79.90
2018-06-14T00:59:35.218Z,79.77
2018-06-14T01:02:02.540Z,80.04
2018-06-14T01:04:29.836Z,79.16
2018-06-14T01:06:57.072Z,80.05
2018-06-14T01:09:24.427Z,79.26
2018-06-14T01:11:51.675Z,79.65
2018-06-14T01:14:18.960Z,79.64
2018-06-14T01:16:46.304Z,80.91
2018-06-14T01:19:13.705Z,80.81
2018-06-14T01:21:40.982Z,81.05
2018-06-14T01:24:08.490Z,80.67
2018-06-14T01:26:35.745Z,80.74
2018-06-14T01:29:03.026Z,80.38
2018-06-14T01:31:30.394Z,78.45
2018-06-14T01:33:57.703Z,79.44
2018-06-14T01:36:24.980Z,80.81
2018-06-14T01:38:52.230Z,80.15
2018-06-14T01:41:19.514Z,80.07
2018-06-14T01:43:46.769Z,81.35
2018-06-14T01:46:14.038Z,81.42
2018-06-14T01:48:41.350Z,80.85
2018-06-14T01:51:08.734Z,80.93
2018-06-14T01:53:36.004Z,82.00
2018-06-14T01:56:03.274Z,81.44
2018-06-14T01:58:30.553Z,81.50
2018-06-14T03:17:01.394Z,84.16
2018-06-14T03:19:28.638Z,85.84
2018-06-14T03:21:55.956Z,85.80
2018-06-14T03:24:23.290Z,86.12
2018-06-14T03:26:50.654Z,85.05
2018-06-14T03:29:17.972Z,85.18
2018-06-14T03:31:45.222Z,84.87
2018-06-14T03:34:12.543Z,84.28
2018-06-14T03:36:39.935Z,83.21
2018-06-14T03:39:08.158Z,83.63
2018-06-14T03:41:35.422Z,82.72
2018-06-14T03:44:02.800Z,82.57
2018-06-14T03:46:30.166Z,82.44
2018-06-14T03:48:57.505Z,81.90
2018-06-14T03:51:24.834Z,82.91
2018-06-14T03:53:52.110Z,83.54
2018-06-14T03:56:19.434Z,83.31
2018-06-14T03:58:46.736Z,83.02
2018-06-14T04:01:14.015Z,83.52
2018-06-14T04:03:41.417Z,82.29
2018-06-14T04:06:08.770Z,82.46
2018-06-14T04:08:36.189Z,81.70
2018-06-14T04:11:03.473Z,82.49
2018-06-14T04:13:30.735Z,83.22
2018-06-14T04:15:58.229Z,84.16
2018-06-14T04:18:25.546Z,84.55
2018-06-14T04:20:52.854Z,84.57
2018-06-14T04:23:20.213Z,85.80
2018-06-14T04:25:47.465Z,85.58
2018-06-14T04:28:14.688Z,84.38
2018-06-14T04:30:41.953Z,83.20
2018-06-14T04:33:09.136Z,84.66
2018-06-14T04:35:36.332Z,86.97
2018-06-14T04:38:03.602Z,87.29
2018-06-14T04:40:30.964Z,85.94
2018-06-14T04:42:58.182Z,86.08
2018-06-14T04:45:25.579Z,84.95
2018-06-14T04:47:52.789Z,83.79
2018-06-14T04:50:20.143Z,83.02
2018-06-14T04:52:47.544Z,82.63
2018-06-14T04:55:14.752Z,81.80
2018-06-14T04:57:42.099Z,82.74
2018-06-14T05:00:09.644Z,82.69
2018-06-14T05:02:36.950Z,82.17
2018-06-14T05:05:04.722Z,83.03
2018-06-14T05:07:32.028Z,83.43
2018-06-14T05:09:59.388Z,82.62
2018-06-14T05:12:26.595Z,81.52
2018-06-14T05:14:54.418Z,81.29
2018-06-14T05:17:21.786Z,79.78
2018-06-14T05:19:49.071Z,80.04
2018-06-14T05:22:16.368Z,79.82
2018-06-14T05:24:43.779Z,79.58
2018-06-14T05:27:11.133Z,79.74
2018-06-14T05:29:38.500Z,78.65
2018-06-14T05:32:05.713Z,78.96
2018-06-14T05:34:33.077Z,78.73
2018-06-14T05:37:00.417Z,77.52
2018-06-14T05:39:27.676Z,77.30
2018-06-14T05:41:54.965Z,78.06
2018-06-14T05:44:22.246Z,77.64
2018-06-14T05:46:49.534Z,78.57
2018-06-14T05:49:16.788Z,77.94
2018-06-14T05:51:44.093Z,77.28
2018-06-14T05:54:11.533Z,76.06
2018-06-14T05:56:38.844Z,75.28
2018-06-14T05:59:06.207Z,73.81
2018-06-14T06:01:33.489Z,72.41
2018-06-14T06:04:00.816Z,73.48
2018-06-14T06:06:28.194Z,74.64
2018-06-14T06:08:55.427Z,73.64
2018-06-14T06:11:22.708Z,72.48
2018-06-14T06:13:49.957Z,73.10
2018-06-14T06:16:17.245Z,72.05
2018-06-14T06:18:44.531Z,71.79
2018-06-14T06:21:11.843Z,71.69
2018-06-14T06:23:39.074Z,71.94
2018-06-14T06:26:06.459Z,67.86
2018-06-14T06:28:33.640Z,68.02
2018-06-14T06:31:01.000Z,70.08
2018-06-14T06:33:28.465Z,68.97
2018-06-14T06:35:55.666Z,67.60
2018-06-14T06:38:22.920Z,66.27
2018-06-14T06:40:50.327Z,64.85
2018-06-14T06:43:17.521Z,63.42
2018-06-14T06:45:44.947Z,62.48
2018-06-14T06:48:12.271Z,63.39
2018-06-14T06:50:39.681Z,63.71
2018-06-14T06:53:06.969Z,63.53
2018-06-14T06:55:34.199Z,60.52
2018-06-14T06:58:01.544Z,58.22
2018-06-14T07:00:28.798Z,58.89
2018-06-14T07:05:24.816Z,59.59
2018-06-14T07:10:45.169Z,57.20
2018-06-14T07:13:12.449Z,55.37
2018-06-14T07:15:39.693Z,54.31
2018-06-14T07:18:07.005Z,52.15
2018-06-14T07:20:34.337Z,49.28
2018-06-14T07:23:01.530Z,49.53
2018-06-14T07:25:28.880Z,47.75
2018-06-14T07:27:57.366Z,47.03
2018-06-14T07:30:24.683Z,47.05
2018-06-14T07:32:51.930Z,48.06
2018-06-14T07:35:19.218Z,48.17
2018-06-14T07:37:46.494Z,43.78
2018-06-14T07:40:13.825Z,43.87
2018-06-14T07:42:41.092Z,45.85
2018-06-14T07:45:08.527Z,48.31
2018-06-14T07:47:35.851Z,49.74
2018-06-14T07:50:03.253Z,48.25
2018-06-14T07:52:30.546Z,45.64
2018-06-14T07:54:57.851Z,49.53
2018-06-14T07:57:25.262Z,48.58
2018-06-14T07:59:52.521Z,49.82
2018-06-14T08:02:19.792Z,45.63
2018-06-14T08:04:47.123Z,44.25
2018-06-14T08:07:14.400Z,45.93
2018-06-14T08:09:41.660Z,49.66
2018-06-14T08:12:09.187Z,47.09
2018-06-14T08:14:36.566Z,47.01
2018-06-14T08:17:03.905Z,49.56
2018-06-14T08:19:31.234Z,51.66
2018-06-14T08:21:58.528Z,47.58
2018-06-14T08:24:25.818Z,48.75
2018-06-14T08:26:53.098Z,49.54
2018-06-14T08:29:20.456Z,50.53
2018-06-14T08:31:47.752Z,50.90
2018-06-14T08:34:15.027Z,49.30
2018-06-14T08:36:42.301Z,48.64
2018-06-14T08:39:09.843Z,48.36
2018-06-14T08:41:37.271Z,46.62
2018-06-14T08:44:04.661Z,47.07
2018-06-14T08:46:31.933Z,45.84
2018-06-14T08:48:59.565Z,47.58
2018-06-14T08:51:26.909Z,47.76
2018-06-14T08:53:54.172Z,46.06
2018-06-14T08:56:21.441Z,45.27
2018-06-14T08:58:48.666Z,44.33
2018-06-14T09:01:16.042Z,44.19
2018-06-14T09:03:43.284Z,45.34
2018-06-14T09:06:10.588Z,43.66
2018-06-14T09:08:37.797Z,43.11
2018-06-14T09:11:05.050Z,44.37
2018-06-14T09:13:32.332Z,42.51
2018-06-14T09:15:59.601Z,40.72
2018-06-14T09:18:26.866Z,43.45
2018-06-14T09:20:54.133Z,41.25
2018-06-14T09:23:21.417Z,42.39
2018-06-14T09:25:48.681Z,41.59
2018-06-14T09:28:15.890Z,43.61
2018-06-14T09:30:43.191Z,45.13
2018-06-14T09:33:10.859Z,40.70
2018-06-14T09:35:38.182Z,39.98
2018-06-14T09:38:05.424Z,40.42
2018-06-14T09:40:32.710Z,42.48
2018-06-14T09:42:59.993Z,42.32
2018-06-14T09:45:27.338Z,44.33
2018-06-14T09:47:54.598Z,42.43
2018-06-14T09:50:21.982Z,42.13
2018-06-14T09:52:49.167Z,43.08
2018-06-14T09:55:16.452Z,41.56
2018-06-14T09:57:43.831Z,44.44
2018-06-14T10:00:11.219Z,41.78
2018-06-14T10:02:39.125Z,41.99
2018-06-14T10:05:06.417Z,41.95
2018-06-14T10:07:33.664Z,41.56
2018-06-14T10:12:53.355Z,41.76
2018-06-14T10:15:20.740Z,42.78
2018-06-14T10:17:48.005Z,43.07
2018-06-14T10:20:15.238Z,45.17
2018-06-14T10:22:42.569Z,43.97
2018-06-14T10:25:09.841Z,45.11
2018-06-14T10:27:37.101Z,44.74
2018-06-14T10:30:04.455Z,44.75
2018-06-14T10:32:44.535Z,45.46
2018-06-14T10:35:11.862Z,40.70
2018-06-14T10:37:39.294Z,42.62
2018-06-14T10:40:06.571Z,40.59
2018-06-14T10:42:33.899Z,42.77
2018-06-14T10:45:01.194Z,38.54
2018-06-14T10:47:28.478Z,38.54
2018-06-14T10:49:55.805Z,40.14
2018-06-14T10:52:23.036Z,40.47
2018-06-14T10:54:57.213Z,41.91
2018-06-14T10:57:24.594Z,40.95
2018-06-14T10:59:51.972Z,40.61
2018-06-14T11:02:19.379Z,40.78
2018-06-14T11:04:46.673Z,39.88
2018-06-14T11:07:14.069Z,40.15
2018-06-14T11:09:41.409Z,41.23
2018-06-14T11:12:08.705Z,41.03
2018-06-14T11:14:35.966Z,42.31
2018-06-14T11:17:03.307Z,42.91
2018-06-14T11:19:30.677Z,42.21
2018-06-14T11:21:58.134Z,43.25
2018-06-14T11:24:25.411Z,42.79
2018-06-14T11:26:52.775Z,42.59
2018-06-14T11:29:20.100Z,45.32
2018-06-14T11:31:47.415Z,45.30
2018-06-14T11:34:14.720Z,42.98
2018-06-14T11:36:42.028Z,41.07
2018-06-14T11:39:09.268Z,41.95
2018-06-14T11:41:36.654Z,41.63
2018-06-14T11:44:04.110Z,41.95
2018-06-14T11:46:31.428Z,42.28
2018-06-14T11:48:58.718Z,42.54
2018-06-14T11:51:26.013Z,42.41
2018-06-14T11:54:09.497Z,43.10
2018-06-14T11:56:37.535Z,41.97
2018-06-14T11:59:04.887Z,40.51
2018-06-14T12:01:32.208Z,41.96
2018-06-14T12:03:59.626Z,41.36
2018-06-14T12:06:26.975Z,42.17
2018-06-14T12:08:54.256Z,40.14
2018-06-14T12:11:21.628Z,40.73
2018-06-14T12:13:48.979Z,40.82
2018-06-14T12:16:16.315Z,40.99
2018-06-14T12:18:43.488Z,40.91
2018-06-14T12:21:10.802Z,41.26
2018-06-14T12:23:38.065Z,40.58
2018-06-14T12:26:05.690Z,39.08
2018-06-14T12:28:32.981Z,40.00
2018-06-14T12:33:52.607Z,41.61
2018-06-14T12:36:20.546Z,42.00
2018-06-14T12:38:48.129Z,41.83
2018-06-14T12:41:15.446Z,43.94
2018-06-14T12:43:42.900Z,41.64
2018-06-14T12:46:10.138Z,42.66
2018-06-14T12:48:37.443Z,43.41
2018-06-14T12:51:04.809Z,43.93
2018-06-14T12:53:45.226Z,39.61
2018-06-14T12:56:12.579Z,41.43
2018-06-14T12:58:39.820Z,43.15
2018-06-14T13:01:07.121Z,42.24
2018-06-14T13:03:34.368Z,42.26
2018-06-14T13:06:01.769Z,38.52
2018-06-14T13:08:29.109Z,38.23
2018-06-14T13:10:56.425Z,39.63
2018-06-14T13:13:23.700Z,35.69
2018-06-14T13:15:51.294Z,40.14
2018-06-14T13:18:18.543Z,40.44
2018-06-14T13:20:45.845Z,39.95
2018-06-14T13:23:13.157Z,37.26
2018-06-14T13:25:40.617Z,38.66
2018-06-14T13:28:07.987Z,39.94
2018-06-14T13:30:35.415Z,39.81
2018-06-14T13:33:02.730Z,36.94
2018-06-14T13:35:30.086Z,35.67
2018-06-14T13:37:57.346Z,35.47
2018-06-14T13:40:24.727Z,35.24
2018-06-14T13:42:52.133Z,37.07
2018-06-14T13:45:19.360Z,36.85
2018-06-14T13:47:46.655Z,36.21
2018-06-14T13:50:15.019Z,34.71
2018-06-14T13:52:43.284Z,33.97
2018-06-14T13:55:10.605Z,33.78
2018-06-14T13:57:37.919Z,35.11
2018-06-14T14:00:05.252Z,34.74
2018-06-14T14:02:32.556Z,37.78
2018-06-14T14:04:59.811Z,35.34
2018-06-14T14:07:33.130Z,36.61
2018-06-14T14:10:00.587Z,36.21
2018-06-14T14:12:28.183Z,35.58
2018-06-14T14:14:58.012Z,35.68
2018-06-14T14:17:25.421Z,37.32
2018-06-14T14:19:52.703Z,37.26
2018-06-14T14:22:20.072Z,37.10
2018-06-14T14:24:47.404Z,37.15
2018-06-14T14:27:14.667Z,38.36
2018-06-14T14:29:41.953Z,36.09
2018-06-14T14:32:09.281Z,35.41
2018-06-14T14:34:36.623Z,35.82
2018-06-14T14:37:04.091Z,34.98
2018-06-14T14:39:31.344Z,35.24
2018-06-14T14:41:58.701Z,34.90
2018-06-14T14:44:26.011Z,35.70
2018-06-14T14:46:53.357Z,35.17
2018-06-14T14:49:20.931Z,33.09
2018-06-14T14:51:48.200Z,34.14
2018-06-14T14:54:15.435Z,34.91
2018-06-14T14:56:42.678Z,33.48
2018-06-14T14:59:10.016Z,33.32
2018-06-14T15:01:37.363Z,35.67
2018-06-14T15:04:04.815Z,34.23
2018-06-14T15:06:32.092Z,35.42
2018-06-14T15:08:59.336Z,35.11
2018-06-14T15:11:26.634Z,34.24
2018-06-14T15:13:54.071Z,36.64
2018-06-14T15:16:21.326Z,36.73
2018-06-14T15:18:48.655Z,35.09
2018-06-14T15:21:15.940Z,36.88
2018-06-14T15:23:43.273Z,35.95
2018-06-14T15:26:10.533Z,37.09
2018-06-14T15:28:37.851Z,36.13
2018-06-14T15:31:05.284Z,34.39
2018-06-14T15:33:34.166Z,35.55
2018-06-14T15:36:01.663Z,38.22
2018-06-14T15:38:29.013Z,38.92
2018-06-14T15:40:56.484Z,37.87
2018-06-14T15:43:23.745Z,36.09
2018-06-14T15:45:51.137Z,36.11
2018-06-14T15:48:18.493Z,35.74
2018-06-14T15:50:46.156Z,37.46
2018-06-14T15:53:15.106Z,35.11
2018-06-14T15:56:11.202Z,34.95
2018-06-14T15:58:38.571Z,36.55
2018-06-14T16:01:06.387Z,37.55
2018-06-14T16:03:33.638Z,36.21
2018-06-14T16:06:00.929Z,37.08
2018-06-14T16:08:28.297Z,37.76
2018-06-14T16:10:55.627Z,38.31
2018-06-14T16:13:22.902Z,39.31
2018-06-14T16:15:50.192Z,41.63
2018-06-14T16:18:17.621Z,40.89
2018-06-14T16:20:45.690Z,38.95
2018-06-14T16:23:12.982Z,38.43
2018-06-14T16:25:40.260Z,39.89
2018-06-14T16:28:07.517Z,39.19
2018-06-14T16:30:34.998Z,41.02
2018-06-14T16:33:02.320Z,41.45
2018-06-14T16:35:40.139Z,39.82
2018-06-14T16:38:08.084Z,39.03
2018-06-14T16:40:35.373Z,40.46
2018-06-14T16:43:02.858Z,40.88
2018-06-14T16:45:30.250Z,41.72
2018-06-14T16:50:50.279Z,41.09
2018-06-14T16:53:17.600Z,42.07
2018-06-14T16:55:44.833Z,42.95
2018-06-14T16:58:12.167Z,43.13
2018-06-14T17:00:39.563Z,43.61
2018-06-14T17:05:59.080Z,43.14
2018-06-14T17:08:26.371Z,42.06
2018-06-14T17:10:53.659Z,43.39
2018-06-14T17:13:20.965Z,43.42
2018-06-14T17:15:48.280Z,44.62
2018-06-14T17:18:15.595Z,44.25
2018-06-14T17:20:42.962Z,43.80
2018-06-14T17:23:10.309Z,45.13
2018-06-14T17:25:37.696Z,45.50
2018-06-14T17:28:04.975Z,45.55
2018-06-14T17:30:32.321Z,46.13
2018-06-14T17:32:59.621Z,45.58
2018-06-14T17:35:26.948Z,45.31
2018-06-14T17:37:54.268Z,46.12
2018-06-14T17:40:21.742Z,46.63
2018-06-14T17:42:49.060Z,46.95
2018-06-14T17:45:16.442Z,46.73
2018-06-14T17:47:43.848Z,47.04
2018-06-14T17:50:11.148Z,47.71
2018-06-14T17:52:38.451Z,47.54
2018-06-14T17:55:05.883Z,48.11
2018-06-14T17:57:33.155Z,48.64
2018-06-14T18:00:00.437Z,49.39
2018-06-14T18:02:27.768Z,49.15
2018-06-14T18:04:55.082Z,49.73
2018-06-14T18:07:22.368Z,50.38
2018-06-14T18:09:49.657Z,50.31
2018-06-14T18:12:16.979Z,50.44
2018-06-14T18:14:45.990Z,50.97
2018-06-14T18:17:13.495Z,51.22
2018-06-14T18:19:40.744Z,51.66
2018-06-14T18:22:08.061Z,52.27
2018-06-14T18:24:35.418Z,52.14
2018-06-14T18:27:02.775Z,52.47
2018-06-14T18:29:30.054Z,53.05
2018-06-14T18:31:57.401Z,53.42
2018-06-14T18:34:24.790Z,53.41
2018-06-14T18:36:52.116Z,53.54
2018-06-14T18:39:19.469Z,53.51
2018-06-14T18:41:46.847Z,53.70
2018-06-14T18:44:14.194Z,53.67
2018-06-14T18:46:41.457Z,53.52
2018-06-14T18:49:08.814Z,54.00
2018-06-14T18:51:36.076Z,53.65
2018-06-14T18:54:03.688Z,54.60
2018-06-14T18:56:31.025Z,54.35
2018-06-14T18:58:59.089Z,54.81
2018-06-14T19:01:27.304Z,55.58
2018-06-14T19:03:54.808Z,56.34
2018-06-14T19:06:22.881Z,56.17
2018-06-14T19:08:50.629Z,56.11
2018-06-14T19:11:18.093Z,57.20
2018-06-14T19:13:45.471Z,57.36
2018-06-14T19:16:12.757Z,57.02
2018-06-14T19:18:40.163Z,57.92
2018-06-14T19:21:07.588Z,57.69
2018-06-14T19:23:35.161Z,58.42
2018-06-14T19:26:02.612Z,57.41
2018-06-14T19:28:29.982Z,56.97
2018-06-14T19:30:57.399Z,58.25
2018-06-14T19:33:24.893Z,58.56
2018-06-14T19:35:52.515Z,59.29
2018-06-14T19:38:20.178Z,59.10
2018-06-14T19:41:07.199Z,58.71
2018-06-14T19:43:44.868Z,59.70
2018-06-14T19:46:16.792Z,59.89
2018-06-14T19:48:44.346Z,61.06
2018-06-14T19:51:11.705Z,60.70
2018-06-14T19:53:38.968Z,61.68
2018-06-14T19:56:06.291Z,62.04
2018-06-14T19:58:33.676Z,62.43
2018-06-14T20:01:01.389Z,62.19
2018-06-14T20:03:30.033Z,62.52
2018-06-14T20:05:57.705Z,63.03
2018-06-14T20:08:37.284Z,63.32
2018-06-14T20:11:08.569Z,63.00
2018-06-14T20:13:36.260Z,63.90
2018-06-14T20:16:04.056Z,64.35
2018-06-14T20:18:31.447Z,63.87
2018-06-14T20:20:59.009Z,63.73
2018-06-14T20:23:26.395Z,64.36
2018-06-14T20:25:53.944Z,64.35
2018-06-14T20:28:21.290Z,63.71
2018-06-14T20:30:48.656Z,64.55
2018-06-14T20:33:16.095Z,64.86
2018-06-14T20:35:43.436Z,64.37
2018-06-14T20:38:10.872Z,64.36
2018-06-14T20:40:38.248Z,65.14
2018-06-14T20:43:05.679Z,65.10
2018-06-14T20:45:33.170Z,65.29
2018-06-14T20:50:52.977Z,66.92
2018-06-14T20:53:20.415Z,67.02
2018-06-14T20:55:47.827Z,66.01
2018-06-14T20:58:15.280Z,66.72
2018-06-14T21:00:42.593Z,66.11
2018-06-14T21:03:09.987Z,66.22
2018-06-14T21:05:59.647Z,66.25
2018-06-14T21:08:26.983Z,66.66
2018-06-14T21:10:54.356Z,66.83
2018-06-14T21:13:21.632Z,66.41
2018-06-14T21:15:49.124Z,68.01
2018-06-14T21:18:16.456Z,67.81
2018-06-14T21:20:43.846Z,68.05
2018-06-14T21:23:11.293Z,67.86
2018-06-14T21:25:38.728Z,68.58
2018-06-14T21:28:06.234Z,68.23
2018-06-14T21:30:33.488Z,69.40
2018-06-14T21:33:00.810Z,69.03
2018-06-14T21:35:28.083Z,70.04
2018-06-14T21:37:55.388Z,69.66
2018-06-14T21:40:22.780Z,69.83
2018-06-14T21:42:50.155Z,69.36
2018-06-14T21:45:17.461Z,69.30
2018-06-14T21:47:44.866Z,69.20
2018-06-14T21:50:12.319Z,69.10
2018-06-14T21:52:39.638Z,69.12
2018-06-14T21:55:06.920Z,69.70
2018-06-14T21:57:34.265Z,69.87
2018-06-14T22:00:01.555Z,69.53
2018-06-14T22:02:28.852Z,70.55
2018-06-14T22:04:56.239Z,70.35
2018-06-14T22:07:23.549Z,70.08
2018-06-14T22:09:50.850Z,70.78
2018-06-14T22:12:18.158Z,71.15
2018-06-14T22:14:47.138Z,71.46
2018-06-14T22:17:14.476Z,71.85
2018-06-14T22:19:41.695Z,71.33
2018-06-14T22:22:08.991Z,71.95
2018-06-14T22:24:36.338Z,71.68
2018-06-14T22:27:03.860Z,71.91
2018-06-14T22:29:31.204Z,72.06
2018-06-14T22:31:58.595Z,72.02
2018-06-14T22:34:37.602Z,73.07
2018-06-14T22:37:04.833Z,72.37
2018-06-14T22:39:32.123Z,73.59
2018-06-14T22:41:59.474Z,72.83
2018-06-14T22:44:26.961Z,72.81
2018-06-14T22:46:54.264Z,73.58
2018-06-14T22:49:21.655Z,73.32
2018-06-14T22:52:03.026Z,73.31
2018-06-14T22:54:30.375Z,73.60
2018-06-14T22:56:57.777Z,73.17
2018-06-14T22:59:25.156Z,73.30
2018-06-14T23:01:52.705Z,74.18
2018-06-14T23:04:24.293Z,73.98
2018-06-14T23:06:51.637Z,74.51
2018-06-14T23:10:31.328Z,74.64
2018-06-14T23:12:58.677Z,73.91
2018-06-14T23:15:25.931Z,74.85
2018-06-14T23:17:53.340Z,74.93
2018-06-14T23:20:21.673Z,74.97
2018-06-14T23:22:50.020Z,74.84
2018-06-14T23:25:18.229Z,75.02
2018-06-14T23:27:45.653Z,74.97
2018-06-14T23:30:13.069Z,75.33
2018-06-14T23:32:40.401Z,74.63
2018-06-14T23:35:07.733Z,75.39
2018-06-14T23:37:34.976Z,75.41
2018-06-14T23:40:02.381Z,75.58
2018-06-14T23:42:29.710Z,75.42
2018-06-14T23:44:57.574Z,76.07
2018-06-14T23:47:25.231Z,76.08
2018-06-14T23:49:52.485Z,75.42
2018-06-14T23:52:19.805Z,75.85
2018-06-14T23:54:47.508Z,75.97
2018-06-14T23:57:14.838Z,75.02
2018-06-14T23:59:42.094Z,75.55
